Friday Harbor, WA

10:36 AM PST on December 06, 2016 (GMT -0800)
Friday Harbor | | Change Station

Elev 108 ft 48.52 °N, 123.02 °W | Updated 43 minutes ago

Clear
Clear
36 °F
Feels Like 28 °F
N
13
Wind Variable Wind from North
Gusts 21 mph

Today
High -- | Low -- °F
--% Chance of Precip.
Yesterday
High -- | Low -- °F
Precip. -- in
Pressure 30.21 in
Visibility 10.0 miles
Clouds Clear
Windchill 28 °F
Dew Point 18 °F
Humidity 48%
Rainfall 0.00 in
Snow Depth Not available.
7:49 AM 4:17 PM
Waxing Crescent, 44% visible
METAR KFHR 061753Z AUTO 35011G18KT 10SM CLR 02/M08 A3020 RMK AO2 PK WND 02029/1706 SLP228 T00221078 10022 20011 53021
Pressure 30.21 in
Visibility 10.0 miles
Clouds Clear
Windchill 28 °F
Dew Point 18 °F
Humidity 48%
Rainfall 0.00 in
Snow Depth Not available.
7:49 AM 4:17 PM
Waxing Crescent, 44% visible
METAR KFHR 061753Z AUTO 35011G18KT 10SM CLR 02/M08 A3020 RMK AO2 PK WND 02029/1706 SLP228 T00221078 10022 20011 53021

10-Day Weather Forecast

Almanac

Astronomy

Dec. 06, 2016 Rise Set
Actual Time
Civil Twilight
Nautical Twilight
Astronomical Twilight
Moon
Length of Visible Light
Length of Day
Tomorrow will be .
, % of the Moon is Illuminated

Today's Extremes

State Highs State Lows

Community

WunderPhotos

Upload Photos

1,955,999 photos uploaded!

WunderBlog® & News

Nearby

Air Quality

  Air Quality AQ Index Pollutant
Not available.

Snow Depth

Station Depth Elevation

Earthquake Activity

City Distance Mag. Time & Date
Minimum magnitude displayed is 2.5.

Coastal Water Temperatures

Place Temperature

Stations

Nearby Weather Stations

Station Location Temp. Windchill Dew Point Humidity Wind Precip. Elev Updated Type
                   

Watches & Warnings

There are currently no watches in effect.